Time;durP1;ratioP1;P1;durP2;ratioP2;P2;SDS_P1;SDS_P2;PMS_P1;PMS_P2;Temp;Humidity;BMP_temperature;BMP_pressure;BME280_temperature;BME280_humidity;BME280_pressure;Samples;Min_cycle;Max_cycle;Signal;HPM_P1;HPM_P2
2022/12/18 00:01:23;;;;;;;8.55;7.13;;;21.80;35.20;;;;;;6092224;23;20017;-65
2022/12/18 00:03:50;;;;;;;9.50;7.88;;;21.80;35.20;;;;;;6092375;23;20017;-65
2022/12/18 00:06:16;;;;;;;7.75;6.88;;;21.80;35.20;;;;;;6118609;23;20022;-65
2022/12/18 00:08:43;;;;;;;8.50;7.53;;;21.80;35.20;;;;;;6118799;23;20010;-65
2022/12/18 00:11:17;;;;;;;8.60;7.70;;;21.70;35.20;;;;;;6093090;23;20120;-64
2022/12/18 00:13:43;;;;;;;8.77;7.65;;;21.70;35.20;;;;;;6118198;23;20010;-64
2022/12/18 00:16:14;;;;;;;7.90;6.97;;;21.70;35.20;;;;;;6118454;23;20024;-65
2022/12/18 00:18:41;;;;;;;9.05;8.02;;;21.60;35.20;;;;;;6118217;23;20096;-65
2022/12/18 00:21:09;;;;;;;10.07;7.30;;;21.60;35.20;;;;;;6117918;23;20113;-65
2022/12/18 00:23:38;;;;;;;8.63;7.72;;;21.60;35.20;;;;;;6118472;23;20447;-65
2022/12/18 00:26:28;;;;;;;8.07;7.18;;;21.60;35.30;;;;;;6120084;23;20084;-65
2022/12/18 00:28:57;;;;;;;8.30;7.38;;;21.50;35.10;;;;;;6113262;23;20010;-65
2022/12/18 00:31:24;;;;;;;8.23;7.40;;;21.50;35.20;;;;;;6118483;23;20347;-65
2022/12/18 00:33:50;;;;;;;8.57;7.72;;;21.50;35.40;;;;;;6117872;23;20022;-65
2022/12/18 00:36:20;;;;;;;9.60;8.10;;;21.40;35.20;;;;;;6118901;23;20026;-66
2022/12/18 00:38:46;;;;;;;8.60;7.70;;;21.40;35.00;;;;;;6067550;23;20132;-65
2022/12/18 00:41:13;;;;;;;9.25;8.13;;;21.40;35.10;;;;;;6067690;23;20014;-65
2022/12/18 00:43:59;;;;;;;10.00;8.73;;;21.40;35.20;;;;;;6119104;23;20018;-65
2022/12/18 00:46:25;;;;;;;9.40;8.40;;;21.40;35.20;;;;;;6118100;23;20020;-65
2022/12/18 00:48:50;;;;;;;9.27;8.32;;;21.30;35.10;;;;;;6093000;23;20097;-65
2022/12/18 00:51:16;;;;;;;9.48;8.45;;;21.30;35.10;;;;;;6118865;23;20100;-65
2022/12/18 00:53:41;;;;;;;8.98;7.90;;;21.30;35.00;;;;;;6092357;23;20025;-65
2022/12/18 00:56:07;;;;;;;9.65;8.65;;;21.30;35.00;;;;;;6092931;23;20024;-65
2022/12/18 00:58:33;;;;;;;10.30;9.15;;;21.20;34.90;;;;;;6118560;23;20025;-65
2022/12/18 01:00:58;;;;;;;9.30;8.25;;;21.20;34.90;;;;;;6119286;23;20025;-66
2022/12/18 01:03:24;;;;;;;9.77;8.32;;;21.20;35.10;;;;;;6118365;23;20013;-65
2022/12/18 01:05:50;;;;;;;10.07;8.98;;;21.10;35.10;;;;;;6118671;23;20333;-65
2022/12/18 01:08:15;;;;;;;9.68;8.60;;;21.10;35.00;;;;;;6117989;23;20018;-64
2022/12/18 01:10:41;;;;;;;10.65;8.57;;;21.10;34.90;;;;;;6117847;23;20049;-64
2022/12/18 01:13:07;;;;;;;10.25;9.13;;;21.10;34.90;;;;;;6117568;23;20028;-64
2022/12/18 01:15:32;;;;;;;11.38;8.82;;;21.10;34.80;;;;;;6118416;23;20022;-65
2022/12/18 01:17:58;;;;;;;10.45;9.43;;;21.00;35.50;;;;;;6118931;23;20010;-64
2022/12/18 01:20:24;;;;;;;9.95;8.90;;;21.00;34.70;;;;;;6118655;23;20045;-64
2022/12/18 01:22:49;;;;;;;9.35;8.35;;;21.00;34.70;;;;;;6092224;23;20034;-65
2022/12/18 01:25:15;;;;;;;10.10;8.52;;;21.00;34.70;;;;;;6091810;23;20021;-65
2022/12/18 01:27:40;;;;;;;9.90;8.90;;;20.90;34.70;;;;;;6091036;23;20022;-65
2022/12/18 01:30:07;;;;;;;9.85;8.85;;;20.90;34.70;;;;;;6119228;23;20025;-65
2022/12/18 01:32:33;;;;;;;10.15;9.02;;;20.90;34.70;;;;;;6117466;23;20022;-65
2022/12/18 01:34:58;;;;;;;9.98;8.57;;;20.80;34.60;;;;;;6092849;23;20096;-64
2022/12/18 01:37:24;;;;;;;9.70;8.48;;;20.80;34.60;;;;;;6117762;23;20047;-65
2022/12/18 01:39:52;;;;;;;9.73;8.73;;;20.80;35.40;;;;;;6119262;23;20649;-65
2022/12/18 01:42:17;;;;;;;9.65;8.65;;;20.70;34.60;;;;;;6091069;23;20014;-65
2022/12/18 01:44:55;;;;;;;9.88;8.88;;;20.70;34.60;;;;;;6091535;23;20025;-66
2022/12/18 01:47:23;;;;;;;10.52;8.85;;;20.70;34.60;;;;;;6117024;23;20056;-64
2022/12/18 01:49:50;;;;;;;10.50;9.02;;;20.70;34.60;;;;;;6118437;23;20032;-64
2022/12/18 01:52:20;;;;;;;10.30;9.27;;;20.70;35.30;;;;;;6117657;23;20010;-64
2022/12/18 01:54:48;;;;;;;10.07;8.82;;;20.60;34.50;;;;;;6117403;23;20092;-65
2022/12/18 01:57:14;;;;;;;10.20;9.10;;;20.60;34.60;;;;;;6092667;23;20018;-65
2022/12/18 01:59:42;;;;;;;11.75;9.65;;;20.60;35.30;;;;;;6118518;23;20443;-65
2022/12/18 02:02:08;;;;;;;10.90;9.50;;;20.60;34.50;;;;;;6116963;23;20014;-65
2022/12/18 02:04:34;;;;;;;10.05;8.75;;;20.50;34.50;;;;;;6118463;23;20010;-65
2022/12/18 02:07:31;;;;;;;11.60;10.18;;;20.50;34.40;;;;;;6091581;23;20006;-64
2022/12/18 02:10:03;;;;;;;10.77;9.63;;;20.50;34.30;;;;;;6091975;23;20021;-65
2022/12/18 02:12:52;;;;;;;11.05;9.15;;;20.40;34.40;;;;;;6117276;23;20020;-65
2022/12/18 02:15:35;;;;;;;11.50;9.93;;;20.50;34.30;;;;;;6117454;23;20020;-65
2022/12/18 02:18:14;;;;;;;12.23;10.18;;;20.40;34.30;;;;;;6091850;23;20029;-65
2022/12/18 02:20:50;;;;;;;12.18;10.68;;;20.40;34.30;;;;;;6092384;23;20029;-65
2022/12/18 02:23:16;;;;;;;12.93;10.15;;;20.40;34.30;;;;;;6117614;23;20022;-64
2022/12/18 02:26:14;;;;;;;13.40;10.73;;;20.30;34.30;;;;;;6091234;23;20442;-65
2022/12/18 02:28:49;;;;;;;12.63;10.48;;;20.40;34.20;;;;;;6117241;23;20006;-65
2022/12/18 02:31:21;;;;;;;13.35;10.45;;;20.30;34.20;;;;;;6118095;23;20017;-65
2022/12/18 02:33:49;;;;;;;12.00;10.55;;;20.30;34.20;;;;;;6117605;23;20741;-64
2022/12/18 02:36:17;;;;;;;13.27;10.68;;;20.30;34.20;;;;;;6091965;23;20025;-65
2022/12/18 02:38:44;;;;;;;13.57;11.55;;;20.30;34.10;;;;;;6118405;23;20045;-65
2022/12/18 02:41:10;;;;;;;11.98;10.70;;;20.30;34.20;;;;;;6119715;23;20368;-65
2022/12/18 02:43:36;;;;;;;14.35;11.07;;;20.30;34.10;;;;;;6069000;23;20017;-65
2022/12/18 02:46:27;;;;;;;15.63;11.52;;;20.30;34.00;;;;;;6120223;23;20010;-64
2022/12/18 02:48:59;;;;;;;12.95;10.73;;;20.30;33.80;;;;;;6069058;23;20404;-65
2022/12/18 02:51:39;;;;;;;13.52;10.57;;;20.20;33.90;;;;;;6118447;23;20335;-65
2022/12/18 02:54:18;;;;;;;13.25;11.57;;;20.20;33.90;;;;;;6117304;23;20299;-65
2022/12/18 02:56:54;;;;;;;13.65;10.73;;;20.20;33.80;;;;;;6093673;23;20022;-65
2022/12/18 02:59:29;;;;;;;13.00;10.85;;;20.20;33.70;;;;;;6120347;23;20422;-65
2022/12/18 03:02:06;;;;;;;14.90;11.75;;;20.10;33.70;;;;;;6093288;23;20068;-65
2022/12/18 03:04:39;;;;;;;16.10;12.40;;;20.10;33.60;;;;;;6093953;23;20010;-65
2022/12/18 03:07:15;;;;;;;16.17;12.32;;;20.10;33.60;;;;;;6092214;23;20013;-65
2022/12/18 03:09:45;;;;;;;12.88;10.63;;;20.10;33.60;;;;;;6093276;23;20014;-65
2022/12/18 03:12:24;;;;;;;13.73;10.63;;;20.10;33.50;;;;;;6092667;23;20018;-64
2022/12/18 03:14:56;;;;;;;18.35;13.15;;;20.10;33.50;;;;;;6094149;23;20551;-65
2022/12/18 03:17:25;;;;;;;14.77;12.15;;;20.00;33.40;;;;;;6119860;23;20021;-65
2022/12/18 03:19:53;;;;;;;14.40;11.80;;;20.00;33.40;;;;;;6118317;23;20056;-64
2022/12/18 03:22:20;;;;;;;15.23;12.75;;;20.00;33.40;;;;;;6093646;23;20021;-65
2022/12/18 03:24:48;;;;;;;18.38;11.88;;;20.00;33.40;;;;;;6119860;23;20020;-65
2022/12/18 03:27:18;;;;;;;17.55;13.23;;;20.00;33.30;;;;;;6093171;23;20049;-65
2022/12/18 03:29:52;;;;;;;14.55;11.40;;;20.00;33.30;;;;;;6069501;23;20028;-65
2022/12/18 03:32:27;;;;;;;14.98;12.23;;;19.90;33.30;;;;;;6093957;23;20018;-64
2022/12/18 03:34:55;;;;;;;14.57;11.80;;;19.90;33.20;;;;;;6119178;23;20022;-65
2022/12/18 03:37:20;;;;;;;15.35;12.10;;;19.90;33.10;;;;;;6118718;23;20161;-65
2022/12/18 03:39:46;;;;;;;16.52;12.48;;;19.90;33.20;;;;;;6119058;23;20334;-65
2022/12/18 03:42:43;;;;;;;17.10;13.10;;;19.90;33.10;;;;;;6118904;23;20473;-66
2022/12/18 03:45:31;;;;;;;16.13;12.13;;;19.80;33.10;;;;;;6120443;23;20033;-66
2022/12/18 03:48:18;;;;;;;15.27;12.70;;;19.80;33.10;;;;;;6117270;23;20065;-65
2022/12/18 03:51:03;;;;;;;14.35;11.65;;;19.80;33.20;;;;;;6093252;23;20299;-66
2022/12/18 03:53:41;;;;;;;15.63;12.43;;;19.70;33.00;;;;;;6092655;23;20014;-65
2022/12/18 03:56:09;;;;;;;16.08;12.73;;;19.70;33.00;;;;;;6092554;23;20018;-67
2022/12/18 03:58:38;;;;;;;16.58;12.75;;;19.70;33.00;;;;;;6116187;23;20017;-65
2022/12/18 04:01:06;;;;;;;16.23;12.25;;;19.70;33.00;;;;;;6093139;23;20018;-66
2022/12/18 04:03:34;;;;;;;15.95;12.43;;;19.70;33.00;;;;;;6067363;23;20026;-66
2022/12/18 04:06:01;;;;;;;15.90;11.73;;;19.70;33.00;;;;;;6091744;23;20014;-67
2022/12/18 04:08:28;;;;;;;15.98;12.60;;;19.70;33.00;;;;;;6119235;23;20014;-65
2022/12/18 04:10:54;;;;;;;16.80;12.35;;;19.70;32.90;;;;;;6119093;23;20026;-65
2022/12/18 04:13:38;;;;;;;17.83;13.18;;;19.60;32.90;;;;;;6119989;23;20072;-67
2022/12/18 04:16:05;;;;;;;17.38;12.85;;;19.60;32.80;;;;;;6119216;23;20053;-65
2022/12/18 04:18:30;;;;;;;18.35;13.30;;;19.60;32.80;;;;;;6120354;23;20093;-65
2022/12/18 04:20:56;;;;;;;16.88;12.25;;;19.60;32.80;;;;;;6119942;23;20082;-65
2022/12/18 04:23:22;;;;;;;16.65;12.70;;;19.60;32.80;;;;;;6092381;23;20053;-66
2022/12/18 04:25:48;;;;;;;16.33;12.00;;;19.60;32.90;;;;;;6069891;23;20383;-65
2022/12/18 04:28:14;;;;;;;15.90;12.75;;;19.50;32.70;;;;;;6118233;23;20018;-65
2022/12/18 04:30:39;;;;;;;16.55;13.05;;;19.50;32.70;;;;;;6093122;23;20022;-65
2022/12/18 04:33:16;;;;;;;17.20;12.40;;;19.50;32.70;;;;;;6117523;23;20048;-65
2022/12/18 04:35:41;;;;;;;16.52;12.75;;;19.50;32.70;;;;;;6118535;23;20021;-66
2022/12/18 04:38:08;;;;;;;16.17;12.32;;;19.50;32.70;;;;;;6117807;23;20010;-65
2022/12/18 04:40:34;;;;;;;15.73;12.10;;;19.40;32.60;;;;;;6092040;23;20066;-65
2022/12/18 04:43:00;;;;;;;16.77;12.48;;;19.40;32.60;;;;;;6091854;23;20020;-65
2022/12/18 04:45:25;;;;;;;16.25;12.55;;;19.40;32.60;;;;;;6069420;23;20018;-65
2022/12/18 04:47:51;;;;;;;15.20;12.30;;;19.40;32.60;;;;;;6092070;23;20145;-65
2022/12/18 04:50:17;;;;;;;16.40;12.32;;;19.40;32.60;;;;;;6118351;23;20343;-66
2022/12/18 04:52:42;;;;;;;15.50;12.73;;;19.40;32.60;;;;;;6090907;23;20021;-66
2022/12/18 04:55:08;;;;;;;17.70;12.65;;;19.40;32.60;;;;;;6092508;23;20346;-66
2022/12/18 04:57:34;;;;;;;15.90;11.75;;;19.40;32.50;;;;;;6090703;23;20519;-65
2022/12/18 04:59:59;;;;;;;17.30;12.45;;;19.30;32.50;;;;;;6091857;23;20017;-66
2022/12/18 05:02:25;;;;;;;17.35;12.10;;;19.30;32.40;;;;;;6091692;23;20014;-66
2022/12/18 05:04:50;;;;;;;15.55;11.77;;;19.30;32.40;;;;;;6118621;23;20025;-65
2022/12/18 05:07:16;;;;;;;15.73;12.00;;;19.30;32.40;;;;;;6091629;23;20088;-66
2022/12/18 05:09:42;;;;;;;15.27;11.07;;;19.30;32.40;;;;;;6093107;23;20018;-66
2022/12/18 05:12:07;;;;;;;16.02;11.82;;;19.30;32.40;;;;;;6067904;23;20018;-65
2022/12/18 05:14:33;;;;;;;16.02;12.45;;;19.30;32.40;;;;;;6092551;23;20014;-65
2022/12/18 05:16:58;;;;;;;14.70;11.23;;;19.30;32.30;;;;;;6092525;23;20379;-65
2022/12/18 05:19:24;;;;;;;15.95;11.52;;;19.20;32.30;;;;;;6068689;23;20014;-65
2022/12/18 05:21:50;;;;;;;14.95;11.30;;;19.20;32.30;;;;;;6117799;23;20037;-65
2022/12/18 05:24:15;;;;;;;14.30;10.75;;;19.20;32.30;;;;;;6118938;23;20077;-65
2022/12/18 05:26:41;;;;;;;15.43;11.90;;;19.20;32.20;;;;;;6117061;23;20065;-65
2022/12/18 05:29:07;;;;;;;15.23;11.25;;;19.20;32.30;;;;;;6117341;23;20386;-65
2022/12/18 05:31:32;;;;;;;13.57;10.65;;;19.20;32.30;;;;;;6117800;23;20405;-66
2022/12/18 05:33:58;;;;;;;14.85;10.93;;;19.10;32.20;;;;;;6117755;23;20521;-65
2022/12/18 05:36:24;;;;;;;15.85;11.48;;;19.10;32.20;;;;;;6092154;23;20354;-66
2022/12/18 05:38:49;;;;;;;15.43;10.80;;;19.10;32.20;;;;;;6118082;23;20340;-66
2022/12/18 05:41:15;;;;;;;13.52;11.45;;;19.10;32.10;;;;;;6118752;23;20022;-65
2022/12/18 05:43:41;;;;;;;13.32;10.70;;;19.10;32.20;;;;;;6116835;23;20026;-65
2022/12/18 05:46:10;;;;;;;13.80;10.75;;;19.10;32.10;;;;;;6090859;23;20085;-65
2022/12/18 05:48:36;;;;;;;13.30;10.43;;;19.10;32.10;;;;;;6091217;23;20438;-65
2022/12/18 05:51:12;;;;;;;13.05;10.40;;;19.10;32.20;;;;;;6118342;23;20028;-65
2022/12/18 05:53:38;;;;;;;12.88;10.65;;;19.10;32.10;;;;;;6092017;23;20014;-65
2022/12/18 05:56:06;;;;;;;13.73;10.38;;;19.00;32.10;;;;;;6090686;23;20271;-65
2022/12/18 05:58:32;;;;;;;14.00;10.65;;;19.00;32.10;;;;;;6116201;23;20018;-65
2022/12/18 06:01:06;;;;;;;13.27;10.75;;;19.00;32.00;;;;;;6066790;23;20022;-65
2022/12/18 06:03:32;;;;;;;13.68;9.90;;;19.00;32.00;;;;;;6116414;23;20014;-65
2022/12/18 06:05:58;;;;;;;12.68;9.95;;;19.00;32.10;;;;;;6116819;23;20466;-65
2022/12/18 06:08:23;;;;;;;14.18;10.82;;;19.00;32.00;;;;;;6116349;23;20439;-64
2022/12/18 06:10:51;;;;;;;11.57;9.50;;;19.00;32.00;;;;;;6090860;23;20017;-66
2022/12/18 06:13:17;;;;;;;12.60;9.65;;;19.00;32.00;;;;;;6068196;23;20029;-65
2022/12/18 06:15:42;;;;;;;12.82;9.38;;;18.90;32.00;;;;;;6119681;23;20014;-65
2022/12/18 06:18:08;;;;;;;12.38;10.35;;;18.90;32.00;;;;;;6118312;23;20010;-65
2022/12/18 06:20:36;;;;;;;11.45;9.65;;;18.90;32.00;;;;;;6092361;23;20014;-65
2022/12/18 06:23:02;;;;;;;11.57;9.77;;;18.90;32.00;;;;;;6090469;23;20052;-65
2022/12/18 06:25:28;;;;;;;12.25;9.35;;;18.90;32.00;;;;;;6093185;23;20014;-65
2022/12/18 06:27:53;;;;;;;11.52;9.40;;;18.90;31.90;;;;;;6116725;23;20080;-65
2022/12/18 06:30:20;;;;;;;12.85;9.55;;;18.90;32.00;;;;;;6091470;23;20365;-65
2022/12/18 06:32:45;;;;;;;11.32;8.80;;;18.80;31.90;;;;;;6115688;23;20026;-65
2022/12/18 06:35:11;;;;;;;13.38;9.88;;;18.80;31.90;;;;;;6088030;23;20368;-65
2022/12/18 06:37:37;;;;;;;11.77;9.85;;;18.80;31.90;;;;;;6115150;23;20054;-65
2022/12/18 06:40:03;;;;;;;10.68;8.73;;;18.80;31.90;;;;;;6088366;23;20095;-65
2022/12/18 06:42:29;;;;;;;11.23;9.10;;;18.80;31.90;;;;;;6116632;23;20025;-64
2022/12/18 06:44:54;;;;;;;11.48;9.70;;;18.80;31.80;;;;;;6092490;23;20061;-65
2022/12/18 06:47:20;;;;;;;11.32;9.40;;;18.80;31.90;;;;;;6117359;23;20447;-64
2022/12/18 06:49:46;;;;;;;11.27;8.98;;;18.80;31.90;;;;;;6118049;23;20013;-65
2022/12/18 06:52:11;;;;;;;10.55;9.13;;;18.80;31.80;;;;;;6090686;23;20032;-65
2022/12/18 06:54:37;;;;;;;11.48;8.88;;;18.70;31.80;;;;;;6118737;23;20010;-65
2022/12/18 06:57:03;;;;;;;10.57;8.85;;;18.70;31.80;;;;;;6092514;23;20050;-65
2022/12/18 06:59:28;;;;;;;11.75;9.13;;;18.70;31.80;;;;;;6091729;23;20041;-65
2022/12/18 07:01:54;;;;;;;10.30;8.82;;;18.70;31.70;;;;;;6091160;23;20069;-65
2022/12/18 07:04:20;;;;;;;11.30;9.50;;;18.70;31.70;;;;;;6118786;23;20025;-64
2022/12/18 07:06:45;;;;;;;9.75;8.25;;;18.70;31.70;;;;;;6091297;23;20014;-65
2022/12/18 07:09:11;;;;;;;10.57;8.52;;;18.70;31.70;;;;;;6117740;23;20017;-65
2022/12/18 07:11:37;;;;;;;10.07;8.15;;;18.70;31.70;;;;;;6091700;23;20354;-65
2022/12/18 07:14:02;;;;;;;9.90;8.38;;;18.60;31.70;;;;;;6117594;23;20014;-65
2022/12/18 07:16:28;;;;;;;11.52;9.02;;;18.60;31.70;;;;;;6092519;23;20025;-65
2022/12/18 07:18:56;;;;;;;10.70;8.07;;;18.60;31.70;;;;;;6117070;23;20049;-66
2022/12/18 07:21:22;;;;;;;9.65;8.15;;;18.60;31.70;;;;;;6117978;23;20080;-65
2022/12/18 07:23:48;;;;;;;9.50;8.35;;;18.60;31.80;;;;;;6117153;23;20425;-65
2022/12/18 07:26:16;;;;;;;10.07;8.25;;;18.60;31.60;;;;;;6092268;23;20070;-65
2022/12/18 07:28:42;;;;;;;10.35;8.25;;;18.70;31.60;;;;;;6117494;23;20072;-65
2022/12/18 07:31:14;;;;;;;9.90;7.90;;;18.70;31.60;;;;;;6118867;23;20521;-65
2022/12/18 07:33:40;;;;;;;10.25;8.00;;;18.70;31.50;;;;;;6091759;23;20114;-65
2022/12/18 07:36:08;;;;;;;11.40;8.38;;;18.70;31.40;;;;;;6068510;23;20121;-65
2022/12/18 07:38:35;;;;;;;10.73;8.18;;;18.70;31.40;;;;;;6117624;23;20025;-66
2022/12/18 07:41:12;;;;;;;9.38;7.93;;;18.60;31.40;;;;;;6117530;23;20057;-66
2022/12/18 07:43:39;;;;;;;9.68;8.00;;;18.60;31.30;;;;;;6117493;23;20121;-66
2022/12/18 07:46:06;;;;;;;11.07;8.18;;;18.60;31.40;;;;;;6068187;23;20672;-65
2022/12/18 07:48:32;;;;;;;9.27;7.72;;;18.60;31.50;;;;;;6090657;23;20014;-66
2022/12/18 07:51:06;;;;;;;8.45;7.53;;;18.60;31.50;;;;;;6090915;23;20097;-65
2022/12/18 07:53:32;;;;;;;8.20;7.20;;;18.60;31.40;;;;;;6090816;23;20462;-64
2022/12/18 07:56:05;;;;;;;8.65;7.18;;;18.60;31.40;;;;;;6117502;23;20010;-66
2022/12/18 07:58:31;;;;;;;9.10;7.63;;;18.50;31.40;;;;;;6091185;23;20014;-66
2022/12/18 08:01:11;;;;;;;8.82;7.30;;;18.50;31.40;;;;;;6118296;23;20089;-66
2022/12/18 08:03:39;;;;;;;8.20;7.28;;;18.50;32.00;;;;;;6091123;23;20457;-65
2022/12/18 08:06:07;;;;;;;8.00;7.03;;;18.40;32.00;;;;;;6117851;23;20020;-66
2022/12/18 08:08:34;;;;;;;7.95;7.15;;;18.40;31.30;;;;;;6090652;23;20093;-66
2022/12/18 08:11:00;;;;;;;6.82;6.05;;;18.30;31.30;;;;;;6066628;23;20069;-66
2022/12/18 08:13:26;;;;;;;9.00;7.38;;;18.30;31.60;;;;;;6091353;23;20033;-66
2022/12/18 08:16:06;;;;;;;8.23;7.03;;;18.30;31.80;;;;;;6090863;23;20739;-65
2022/12/18 08:18:38;;;;;;;7.97;6.72;;;18.30;31.90;;;;;;6091012;23;20022;-66
2022/12/18 08:21:15;;;;;;;8.65;6.70;;;18.40;32.10;;;;;;6116839;23;20014;-66
2022/12/18 08:23:42;;;;;;;7.47;6.40;;;18.50;32.10;;;;;;6115627;23;20022;-66
2022/12/18 08:26:08;;;;;;;7.90;7.03;;;18.60;32.00;;;;;;6117548;23;20544;-65
2022/12/18 08:28:34;;;;;;;15.40;7.88;;;18.70;32.00;;;;;;6117022;23;20385;-66
2022/12/18 08:31:00;;;;;;;13.57;7.00;;;18.90;31.90;;;;;;6113934;23;20153;-65
2022/12/18 08:33:26;;;;;;;9.00;6.70;;;19.10;31.80;;;;;;6066725;23;20092;-65
2022/12/18 08:35:52;;;;;;;8.93;6.40;;;19.40;31.50;;;;;;6088811;23;20026;-65
2022/12/18 08:38:18;;;;;;;9.10;6.20;;;19.70;31.20;;;;;;6088525;23;20450;-66
2022/12/18 08:40:43;;;;;;;7.13;6.10;;;20.10;31.00;;;;;;6067597;23;20057;-65
2022/12/18 08:45:55;;;;;;;6.85;5.75;;;20.60;31.10;;;;;;6117256;23;20387;-66
2022/12/18 08:48:21;;;;;;;8.13;6.63;;;20.70;30.20;;;;;;6091093;23;20022;-66
2022/12/18 08:50:57;;;;;;;8.02;6.60;;;20.70;30.00;;;;;;6090036;23;20814;-66
2022/12/18 08:53:26;;;;;;;7.65;6.05;;;20.70;30.30;;;;;;6090220;23;20438;-66
2022/12/18 08:55:53;;;;;;;8.93;6.45;;;20.80;30.10;;;;;;6117102;23;20025;-66
2022/12/18 08:58:19;;;;;;;8.15;5.72;;;20.90;30.10;;;;;;6090682;23;20013;-66
2022/12/18 09:00:45;;;;;;;6.38;5.78;;;21.00;30.00;;;;;;6089629;23;20073;-67
2022/12/18 09:03:13;;;;;;;6.20;5.60;;;21.20;29.90;;;;;;6090359;23;20431;-66
2022/12/18 09:05:38;;;;;;;6.00;5.40;;;21.50;29.70;;;;;;6117682;23;20448;-65
2022/12/18 09:08:04;;;;;;;6.43;5.68;;;21.70;29.60;;;;;;6090178;23;20018;-66
2022/12/18 09:10:30;;;;;;;10.77;6.32;;;21.90;30.10;;;;;;6117292;23;20053;-65
2022/12/18 09:12:56;;;;;;;8.00;5.68;;;22.00;29.70;;;;;;6090023;23;20446;-66
2022/12/18 09:15:22;;;;;;;7.95;5.60;;;22.10;29.60;;;;;;6116485;23;20327;-66
2022/12/18 09:17:49;;;;;;;7.43;4.97;;;22.20;29.60;;;;;;6115862;23;20113;-66
2022/12/18 09:20:15;;;;;;;5.78;5.18;;;22.30;29.60;;;;;;6090823;23;20022;-66
2022/12/18 09:22:41;;;;;;;6.75;5.53;;;22.40;29.60;;;;;;6089822;23;20553;-63
2022/12/18 09:25:07;;;;;;;6.47;5.03;;;22.50;29.60;;;;;;6117856;23;20041;-65
2022/12/18 09:27:34;;;;;;;5.93;5.30;;;22.50;29.50;;;;;;6062739;23;20351;-66
2022/12/18 09:30:00;;;;;;;5.57;5.05;;;22.60;29.60;;;;;;6088323;23;20028;-66
2022/12/18 09:32:26;;;;;;;5.60;4.95;;;22.60;29.50;;;;;;6089006;23;20378;-66
2022/12/18 09:34:52;;;;;;;7.03;5.32;;;22.60;29.50;;;;;;6091151;23;20034;-66
2022/12/18 09:37:17;;;;;;;10.90;5.20;;;22.60;29.60;;;;;;6089796;23;20384;-67
2022/12/18 09:39:43;;;;;;;6.63;4.93;;;22.60;29.70;;;;;;6115122;23;20014;-67
2022/12/18 09:42:19;;;;;;;4.60;4.20;;;22.60;29.60;;;;;;6090214;23;20006;-68
2022/12/18 09:44:51;;;;;;;9.65;5.15;;;22.60;29.60;;;;;;6090238;23;20017;-66
2022/12/18 09:47:26;;;;;;;6.25;4.80;;;22.70;29.50;;;;;;6090315;23;20367;-66
2022/12/18 09:50:00;;;;;;;5.68;4.07;;;22.70;29.50;;;;;;6088929;23;20069;-66
2022/12/18 09:52:41;;;;;;;5.43;4.80;;;22.70;29.60;;;;;;6115236;23;20013;-66
2022/12/18 09:55:21;;;;;;;6.63;4.45;;;22.70;29.60;;;;;;6065832;23;20075;-66
2022/12/18 09:57:54;;;;;;;5.18;4.68;;;22.80;29.80;;;;;;6065626;23;20014;-67
2022/12/18 10:00:23;;;;;;;6.32;4.28;;;22.80;29.70;;;;;;6089564;23;20049;-66
2022/12/18 10:02:51;;;;;;;5.03;3.97;;;22.90;30.30;;;;;;6090096;23;20014;-67
2022/12/18 10:05:27;;;;;;;4.90;3.97;;;22.90;29.70;;;;;;6089719;23;20010;-66
2022/12/18 10:07:59;;;;;;;4.18;3.78;;;22.90;29.70;;;;;;6114051;23;20014;-64
2022/12/18 10:10:48;;;;;;;9.98;4.15;;;23.00;29.80;;;;;;6089478;23;20022;-65
2022/12/18 10:13:34;;;;;;;4.97;4.20;;;23.00;29.80;;;;;;6089244;23;20025;-65
2022/12/18 10:16:10;;;;;;;6.18;4.50;;;23.00;29.90;;;;;;6114166;23;20013;-65
2022/12/18 10:19:08;;;;;;;5.72;4.30;;;23.10;30.50;;;;;;6114005;23;20043;-65
2022/12/18 10:21:56;;;;;;;10.73;3.92;;;23.10;30.10;;;;;;6116377;23;20029;-66
2022/12/18 10:24:49;;;;;;;6.72;4.28;;;23.00;30.40;;;;;;6063769;23;20022;-65
2022/12/18 10:27:17;;;;;;;4.97;4.00;;;23.00;30.70;;;;;;6089837;23;20021;-64
2022/12/18 10:29:44;;;;;;;5.53;3.92;;;23.00;30.80;;;;;;6089718;23;20018;-65
2022/12/18 10:32:20;;;;;;;9.38;4.10;;;23.20;31.00;;;;;;6088442;23;20084;-65
2022/12/18 10:34:47;;;;;;;4.65;3.90;;;23.30;30.90;;;;;;6065248;23;20072;-65
2022/12/18 10:37:22;;;;;;;5.80;3.92;;;23.30;30.90;;;;;;6115125;23;20050;-65
2022/12/18 10:40:08;;;;;;;4.47;3.95;;;23.30;31.20;;;;;;6090507;23;20029;-65
2022/12/18 10:42:34;;;;;;;5.20;3.55;;;23.10;31.40;;;;;;6088463;23;20025;-65
2022/12/18 10:45:13;;;;;;;4.72;3.72;;;23.00;31.60;;;;;;6064136;23;20018;-66
2022/12/18 10:47:45;;;;;;;4.55;3.60;;;22.90;31.70;;;;;;6114449;23;20045;-66
2022/12/18 10:50:38;;;;;;;4.53;3.90;;;22.70;31.70;;;;;;6065060;23;20029;-66
2022/12/18 10:53:05;;;;;;;5.18;3.85;;;22.70;32.00;;;;;;6107831;23;20029;-66
2022/12/18 10:55:37;;;;;;;4.80;3.83;;;22.60;32.10;;;;;;6065333;23;20025;-67
2022/12/18 10:58:22;;;;;;;4.93;4.15;;;22.60;32.10;;;;;;6114646;23;20056;-65
2022/12/18 11:01:12;;;;;;;6.65;3.80;;;22.60;32.10;;;;;;6091388;23;20018;-67
2022/12/18 11:03:43;;;;;;;7.55;3.90;;;22.60;32.10;;;;;;6051385;23;20018;-67
2022/12/18 11:06:13;;;;;;;4.55;3.78;;;22.60;32.00;;;;;;6089482;23;20013;-68
2022/12/18 11:08:41;;;;;;;6.13;3.70;;;22.70;31.80;;;;;;6066311;23;20018;-65
2022/12/18 11:11:25;;;;;;;5.57;3.63;;;22.70;31.70;;;;;;6067094;23;20742;-66
2022/12/18 11:14:02;;;;;;;4.32;3.45;;;22.80;31.80;;;;;;6062808;23;20018;-67
2022/12/18 11:16:30;;;;;;;8.20;3.40;;;22.80;31.50;;;;;;6087889;23;20442;-66
2022/12/18 11:19:13;;;;;;;5.88;3.75;;;22.90;31.40;;;;;;6114965;23;20018;-66
2022/12/18 11:21:41;;;;;;;5.35;3.47;;;23.00;31.30;;;;;;6064177;23;20049;-66
2022/12/18 11:24:24;;;;;;;7.18;3.40;;;23.00;31.30;;;;;;6087004;23;20386;-65
2022/12/18 11:26:50;;;;;;;5.63;3.17;;;23.00;31.10;;;;;;6113839;23;20016;-66
2022/12/18 11:29:22;;;;;;;4.18;3.03;;;23.00;31.10;;;;;;6063257;23;20065;-63
2022/12/18 11:31:48;;;;;;;5.53;3.35;;;23.00;31.10;;;;;;6089670;23;20064;-64
2022/12/18 11:34:27;;;;;;;5.10;3.15;;;23.00;31.20;;;;;;6090833;23;20022;-65
2022/12/18 11:36:54;;;;;;;3.72;3.35;;;23.00;31.20;;;;;;6116628;23;20026;-64
2022/12/18 11:39:23;;;;;;;4.10;2.85;;;22.70;31.60;;;;;;6092200;23;20014;-68
2022/12/18 11:42:09;;;;;;;4.40;3.55;;;22.30;32.10;;;;;;6067057;23;20018;-65
2022/12/18 11:44:52;;;;;;;4.57;3.58;;;21.90;32.70;;;;;;6116211;23;20037;-65
2022/12/18 11:47:37;;;;;;;5.88;3.53;;;21.60;32.80;;;;;;6067903;23;20347;-64
2022/12/18 11:50:10;;;;;;;5.90;3.75;;;21.30;34.10;;;;;;6090360;23;20685;-64
2022/12/18 11:52:39;;;;;;;4.20;3.70;;;21.00;36.30;;;;;;6115679;23;20014;-64
2022/12/18 11:55:12;;;;;;;4.10;3.30;;;21.00;37.20;;;;;;6090899;23;20018;-64
2022/12/18 11:58:14;;;;;;;4.53;3.38;;;21.10;37.50;;;;;;6089917;23;20013;-64
2022/12/18 12:00:56;;;;;;;4.53;3.45;;;21.40;37.40;;;;;;6116354;23;20018;-65
2022/12/18 12:03:26;;;;;;;4.43;3.08;;;21.80;36.70;;;;;;6117066;23;20010;-63
2022/12/18 12:06:11;;;;;;;4.93;3.33;;;22.10;36.20;;;;;;6090741;23;20021;-64
2022/12/18 12:09:10;;;;;;;6.43;3.60;;;22.30;35.80;;;;;;6115566;23;20016;-63
2022/12/18 12:11:59;;;;;;;5.05;3.10;;;22.50;35.40;;;;;;6091365;23;20435;-63
2022/12/18 12:14:57;;;;;;;3.22;2.90;;;22.60;35.00;;;;;;6067242;23;20026;-64
2022/12/18 12:17:37;;;;;;;4.53;3.15;;;22.80;34.70;;;;;;6085194;23;20021;-63
2022/12/18 12:20:18;;;;;;;4.88;3.38;;;22.90;34.40;;;;;;6088603;23;20010;-63
2022/12/18 12:22:54;;;;;;;4.40;2.65;;;22.90;34.10;;;;;;6116206;23;20653;-62
2022/12/18 12:25:36;;;;;;;2.90;2.60;;;23.00;34.10;;;;;;6089970;23;20014;-63
2022/12/18 12:28:30;;;;;;;3.42;3.13;;;23.10;34.20;;;;;;6089437;23;20064;-62
2022/12/18 12:31:10;;;;;;;3.35;3.00;;;23.10;34.20;;;;;;6089730;23;20026;-63
2022/12/18 12:33:50;;;;;;;5.38;3.03;;;23.20;34.10;;;;;;6089630;23;20022;-63
2022/12/18 12:36:19;;;;;;;4.43;2.63;;;23.20;33.90;;;;;;6090485;23;20044;-63
2022/12/18 12:38:54;;;;;;;4.30;2.90;;;23.30;33.80;;;;;;6088293;23;20026;-62
2022/12/18 12:44:18;;;;;;;3.88;3.00;;;23.30;33.60;;;;;;6115851;23;20160;-62
2022/12/18 12:46:44;;;;;;;3.70;2.83;;;23.40;33.50;;;;;;6090462;23;20020;-63
2022/12/18 12:49:17;;;;;;;5.03;2.47;;;23.40;33.40;;;;;;6110792;23;20017;-62
2022/12/18 12:51:46;;;;;;;5.88;2.67;;;23.40;34.10;;;;;;6097414;23;20014;-64
2022/12/18 12:54:19;;;;;;;3.55;2.55;;;23.40;33.30;;;;;;6111726;23;20081;-62
2022/12/18 12:57:07;;;;;;;3.15;2.35;;;23.40;33.10;;;;;;6087544;23;20018;-63
2022/12/18 13:00:03;;;;;;;3.72;2.85;;;23.40;33.00;;;;;;6114764;23;20796;-63
2022/12/18 13:02:39;;;;;;;2.92;2.60;;;23.40;32.90;;;;;;6108481;23;20178;-63